createdAt,value
2019-01-05T00:02:26.886Z,3.80
2019-01-05T00:05:20.281Z,3.80
2019-01-05T00:08:22.558Z,3.80
2019-01-05T00:11:11.778Z,3.90
2019-01-05T00:14:05.580Z,3.90
2019-01-05T00:16:55.357Z,3.90
2019-01-05T00:19:46.466Z,4.00
2019-01-05T00:22:43.889Z,4.00
2019-01-05T00:25:40.388Z,4.10
2019-01-05T00:28:30.865Z,4.10
2019-01-05T00:33:56.696Z,4.10
2019-01-05T00:36:56.516Z,4.10
2019-01-05T00:39:57.561Z,4.20
2019-01-05T00:42:57.274Z,4.20
2019-01-05T00:46:04.784Z,4.20
2019-01-05T00:48:59.907Z,4.20
2019-01-05T00:51:53.699Z,4.20
2019-01-05T00:54:46.866Z,4.20
2019-01-05T00:57:43.090Z,4.20
2019-01-05T01:00:50.601Z,4.20
2019-01-05T01:03:41.224Z,4.20
2019-01-05T01:06:31.350Z,4.20
2019-01-05T01:09:37.900Z,4.20
2019-01-05T01:12:46.236Z,4.20
2019-01-05T01:15:42.913Z,4.20
2019-01-05T01:18:28.541Z,4.20
2019-01-05T01:21:21.969Z,4.20
2019-01-05T01:24:22.567Z,4.20
2019-01-05T01:27:31.208Z,4.30
2019-01-05T01:30:20.654Z,4.30
2019-01-05T01:33:23.847Z,4.30
2019-01-05T01:36:26.286Z,4.30
2019-01-05T01:39:23.807Z,4.40
2019-01-05T01:42:26.108Z,4.40
2019-01-05T01:45:15.543Z,4.40
2019-01-05T01:48:06.391Z,4.40
2019-01-05T01:51:13.183Z,4.30
2019-01-05T01:54:03.077Z,4.30
2019-01-05T01:56:46.857Z,4.30
2019-01-05T01:59:45.937Z,4.30
2019-01-05T02:02:37.279Z,4.30
2019-01-05T02:05:27.468Z,4.30
2019-01-05T02:08:38.439Z,4.30
2019-01-05T02:11:33.103Z,4.30
2019-01-05T02:14:25.006Z,4.30
2019-01-05T02:17:30.232Z,4.40
2019-01-05T02:21:02.607Z,4.40
2019-01-05T02:24:21.977Z,4.40
2019-01-05T02:27:46.643Z,4.40
2019-01-05T02:31:19.346Z,4.40
2019-01-05T02:34:25.879Z,4.40
2019-01-05T02:37:41.538Z,4.40
2019-01-05T02:40:55.278Z,4.40
2019-01-05T02:44:37.180Z,4.40
2019-01-05T02:48:06.631Z,4.40
2019-01-05T02:51:32.601Z,4.30
2019-01-05T02:54:57.916Z,4.30
2019-01-05T02:58:27.727Z,4.40
2019-01-05T03:02:06.535Z,4.40
2019-01-05T03:05:26.877Z,4.40
2019-01-05T03:09:12.545Z,4.40
2019-01-05T03:12:45.461Z,4.40
2019-01-05T03:16:38.141Z,4.40
2019-01-05T03:19:47.465Z,4.30
2019-01-05T03:23:13.963Z,4.30
2019-01-05T03:26:47.197Z,4.20
2019-01-05T03:30:22.458Z,4.20
2019-01-05T03:34:01.858Z,4.10
2019-01-05T03:37:39.455Z,4.10
2019-01-05T03:40:54.471Z,4.20
2019-01-05T03:44:15.064Z,4.10
2019-01-05T03:48:06.841Z,4.10
2019-01-05T03:51:51.259Z,4.10
2019-01-05T03:55:18.853Z,4.10
2019-01-05T03:59:00.120Z,4.10
2019-01-05T04:02:44.679Z,4.10
2019-01-05T04:06:25.758Z,4.20
2019-01-05T04:10:02.727Z,4.20
2019-01-05T04:13:33.892Z,4.20
2019-01-05T04:17:15.901Z,4.30
2019-01-05T04:20:46.937Z,4.30
2019-01-05T04:24:35.488Z,4.30
2019-01-05T04:28:12.713Z,4.30
2019-01-05T04:31:51.554Z,4.30
2019-01-05T04:35:20.070Z,4.30
2019-01-05T04:38:58.862Z,4.30
2019-01-05T04:42:28.146Z,4.30
2019-01-05T04:46:08.628Z,4.30
2019-01-05T04:49:50.114Z,4.30
2019-01-05T04:53:37.217Z,4.30
2019-01-05T04:57:03.077Z,4.30
2019-01-05T05:00:53.861Z,4.40
2019-01-05T05:04:21.341Z,4.40
2019-01-05T05:07:49.691Z,4.40
2019-01-05T05:11:15.497Z,4.50
2019-01-05T05:14:49.061Z,4.50
2019-01-05T05:18:09.032Z,4.50
2019-01-05T05:21:51.051Z,4.60
2019-01-05T05:25:26.462Z,4.60
2019-01-05T05:28:54.989Z,4.60
2019-01-05T05:32:26.277Z,4.70
2019-01-05T05:35:43.257Z,4.70
2019-01-05T05:39:17.706Z,4.70
2019-01-05T05:42:44.730Z,4.70
2019-01-05T05:46:36.842Z,4.80
2019-01-05T05:50:05.488Z,4.80
2019-01-05T05:53:30.651Z,4.80
2019-01-05T05:56:54.167Z,4.80
2019-01-05T06:00:39.818Z,4.80
2019-01-05T06:04:21.827Z,4.80
2019-01-05T06:07:56.525Z,4.90
2019-01-05T06:11:29.199Z,5.00
2019-01-05T06:15:00.751Z,5.00
2019-01-05T06:18:31.382Z,5.00
2019-01-05T06:22:09.853Z,5.00
2019-01-05T06:25:39.701Z,5.10
2019-01-05T06:29:15.341Z,5.20
2019-01-05T06:32:40.890Z,5.20
2019-01-05T06:36:57.325Z,5.20
2019-01-05T06:40:41.417Z,5.20
2019-01-05T06:44:38.129Z,5.10
2019-01-05T06:48:12.505Z,5.20
2019-01-05T06:52:00.312Z,5.20
2019-01-05T06:55:32.728Z,5.20
2019-01-05T06:59:18.520Z,5.10
2019-01-05T07:02:48.802Z,5.10
2019-01-05T07:06:33.555Z,5.10
2019-01-05T07:09:55.288Z,5.20
2019-01-05T07:13:31.318Z,5.20
2019-01-05T07:17:12.390Z,5.30
2019-01-05T07:21:01.905Z,5.30
2019-01-05T07:24:35.881Z,5.30
2019-01-05T07:28:14.307Z,5.30
2019-01-05T07:31:47.099Z,5.40
2019-01-05T07:35:55.361Z,5.30
2019-01-05T07:39:33.587Z,5.30
2019-01-05T07:43:11.516Z,5.40
2019-01-05T07:46:57.614Z,5.40
2019-01-05T07:50:45.596Z,5.50
2019-01-05T07:54:50.530Z,5.50
2019-01-05T07:58:24.597Z,5.60
2019-01-05T08:01:40.439Z,5.70
2019-01-05T08:05:44.309Z,5.80
2019-01-05T08:09:08.951Z,5.90
2019-01-05T08:12:32.702Z,5.80
2019-01-05T08:16:12.818Z,5.80
2019-01-05T08:20:06.386Z,5.80
2019-01-05T08:23:41.508Z,5.70
2019-01-05T08:27:43.214Z,5.70
2019-01-05T08:31:16.582Z,5.70
2019-01-05T08:34:48.564Z,5.60
2019-01-05T08:38:24.716Z,5.70
2019-01-05T08:42:18.090Z,5.70
2019-01-05T08:45:49.427Z,5.80
2019-01-05T08:49:35.199Z,5.70
2019-01-05T08:53:07.993Z,5.80
2019-01-05T08:56:50.549Z,5.80
2019-01-05T09:00:35.089Z,5.80
2019-01-05T09:04:20.364Z,5.80
2019-01-05T09:07:44.724Z,5.90
2019-01-05T09:11:26.289Z,5.90
2019-01-05T09:14:54.598Z,5.80
2019-01-05T09:18:36.685Z,5.90
2019-01-05T09:22:05.907Z,5.80
2019-01-05T09:25:21.808Z,5.80
2019-01-05T09:29:11.931Z,5.70
2019-01-05T09:32:39.092Z,5.50
2019-01-05T09:36:29.929Z,5.50
2019-01-05T09:40:17.535Z,5.50
2019-01-05T09:43:52.004Z,5.40
2019-01-05T09:47:39.143Z,5.10
2019-01-05T09:51:03.579Z,5.20
2019-01-05T09:54:40.400Z,5.30
2019-01-05T09:58:40.506Z,5.20
2019-01-05T10:02:10.971Z,5.10
2019-01-05T10:05:59.518Z,5.10
2019-01-05T10:09:28.765Z,5.00
2019-01-05T10:12:57.543Z,5.10
2019-01-05T10:16:47.358Z,5.10
2019-01-05T10:20:29.728Z,5.30
2019-01-05T10:23:54.544Z,5.40
2019-01-05T10:27:34.378Z,5.50
2019-01-05T10:31:17.349Z,5.60
2019-01-05T10:34:45.255Z,5.60
2019-01-05T10:38:29.231Z,5.60
2019-01-05T10:42:04.000Z,5.70
2019-01-05T10:45:31.805Z,5.60
2019-01-05T10:49:01.316Z,5.70
2019-01-05T10:52:43.218Z,5.80
2019-01-05T10:56:32.152Z,5.80
2019-01-05T10:59:54.888Z,5.90
2019-01-05T11:03:40.245Z,6.00
2019-01-05T11:07:08.293Z,6.00
2019-01-05T11:11:10.157Z,6.00
2019-01-05T11:14:40.726Z,5.90
2019-01-05T11:18:00.130Z,5.80
2019-01-05T11:21:41.011Z,5.70
2019-01-05T11:25:05.473Z,5.60
2019-01-05T11:28:50.773Z,5.50
2019-01-05T11:32:36.407Z,5.50
2019-01-05T11:35:52.424Z,5.50
2019-01-05T11:39:20.508Z,5.40
2019-01-05T11:42:58.185Z,5.30
2019-01-05T11:46:10.132Z,5.20
2019-01-05T11:49:30.451Z,5.10
2019-01-05T11:53:15.640Z,4.90
2019-01-05T11:56:33.361Z,4.80
2019-01-05T12:00:21.181Z,4.80
2019-01-05T12:04:11.763Z,4.80
2019-01-05T12:07:52.127Z,4.90
2019-01-05T12:11:24.823Z,5.10
2019-01-05T12:15:17.398Z,5.20
2019-01-05T12:18:51.967Z,5.10
2019-01-05T12:22:37.102Z,5.10
2019-01-05T12:26:16.440Z,5.10
2019-01-05T12:29:42.728Z,5.30
2019-01-05T12:33:20.614Z,5.40
2019-01-05T12:36:44.591Z,5.50
2019-01-05T12:40:54.677Z,5.60
2019-01-05T12:44:26.795Z,5.80
2019-01-05T12:47:51.466Z,5.90
2019-01-05T12:51:14.814Z,5.80
2019-01-05T12:54:41.922Z,5.70
2019-01-05T12:58:12.229Z,5.60
2019-01-05T13:01:41.439Z,5.60
2019-01-05T13:05:11.702Z,5.50
2019-01-05T13:08:42.675Z,5.40
2019-01-05T13:12:14.024Z,5.30
2019-01-05T13:15:58.721Z,5.20
2019-01-05T13:19:41.822Z,5.20
2019-01-05T13:23:07.763Z,5.20
2019-01-05T13:26:46.271Z,5.20
2019-01-05T13:30:20.839Z,5.20
2019-01-05T13:33:50.487Z,5.20
2019-01-05T13:37:28.523Z,5.20
2019-01-05T13:41:00.545Z,5.20
2019-01-05T13:45:02.849Z,5.30
2019-01-05T13:48:35.652Z,5.30
2019-01-05T13:51:56.671Z,5.40
2019-01-05T13:54:47.044Z,5.40
2019-01-05T13:57:36.004Z,5.40
2019-01-05T14:00:33.928Z,5.40
2019-01-05T14:03:27.146Z,5.40
2019-01-05T14:06:23.510Z,5.40
2019-01-05T14:09:10.770Z,5.30
2019-01-05T14:12:11.800Z,5.30
2019-01-05T14:15:20.516Z,5.30
2019-01-05T14:18:22.641Z,5.30
2019-01-05T14:21:22.437Z,5.30
2019-01-05T14:24:11.000Z,5.30
2019-01-05T14:26:59.559Z,5.20
2019-01-05T14:29:49.540Z,5.20
2019-01-05T14:32:42.641Z,5.20
2019-01-05T14:35:31.592Z,5.20
2019-01-05T14:38:20.616Z,5.20
2019-01-05T14:41:13.651Z,5.20
2019-01-05T14:44:06.840Z,5.20
2019-01-05T14:46:55.498Z,5.10
2019-01-05T14:49:48.035Z,5.20
2019-01-05T14:52:35.597Z,5.20
2019-01-05T14:55:25.456Z,5.10
2019-01-05T14:58:14.115Z,5.10
2019-01-05T15:01:04.232Z,5.10
2019-01-05T15:03:52.829Z,5.10
2019-01-05T15:07:01.833Z,5.10
2019-01-05T15:09:52.973Z,5.10
2019-01-05T15:12:43.786Z,5.10
2019-01-05T15:15:37.274Z,5.10
2019-01-05T15:18:27.656Z,5.10
2019-01-05T15:21:16.599Z,5.10
2019-01-05T15:24:08.010Z,5.10
2019-01-05T15:27:01.132Z,5.10
2019-01-05T15:30:00.399Z,5.10
2019-01-05T15:32:50.516Z,5.10
2019-01-05T15:35:39.564Z,5.10
2019-01-05T15:38:44.653Z,5.10
2019-01-05T15:41:39.709Z,5.00
2019-01-05T15:44:35.836Z,5.00
2019-01-05T15:47:31.990Z,5.00
2019-01-05T15:50:31.663Z,5.00
2019-01-05T15:53:21.122Z,4.90
2019-01-05T15:56:10.263Z,4.90
2019-01-05T15:58:59.297Z,4.90
2019-01-05T16:01:52.846Z,4.80
2019-01-05T16:04:52.941Z,4.80
2019-01-05T16:07:52.135Z,4.70
2019-01-05T16:10:41.061Z,4.60
2019-01-05T16:13:46.448Z,4.50
2019-01-05T16:16:35.400Z,4.40
2019-01-05T16:19:34.568Z,4.40
2019-01-05T16:22:27.467Z,4.30
2019-01-05T16:25:14.418Z,4.20
2019-01-05T16:28:22.963Z,4.10
2019-01-05T16:31:18.975Z,4.10
2019-01-05T16:34:08.034Z,4.00
2019-01-05T16:36:58.352Z,4.00
2019-01-05T16:39:53.534Z,4.00
2019-01-05T16:42:44.519Z,4.00
2019-01-05T16:45:33.328Z,4.00
2019-01-05T16:48:23.592Z,3.90
2019-01-05T16:51:12.613Z,3.90
2019-01-05T16:54:14.390Z,3.90
2019-01-05T16:57:17.070Z,3.90
2019-01-05T17:00:22.480Z,4.00
2019-01-05T17:03:21.683Z,4.10
2019-01-05T17:06:24.024Z,4.10
2019-01-05T17:09:14.281Z,4.20
2019-01-05T17:12:03.181Z,4.20
2019-01-05T17:14:51.973Z,4.00
2019-01-05T17:17:54.520Z,3.80
2019-01-05T17:20:44.766Z,3.70
2019-01-05T17:23:47.206Z,3.70
2019-01-05T17:26:38.203Z,3.60
2019-01-05T17:29:34.040Z,3.60
2019-01-05T17:32:24.347Z,3.60
2019-01-05T17:35:32.837Z,3.60
2019-01-05T17:38:21.561Z,3.60
2019-01-05T17:41:24.084Z,3.60
2019-01-05T17:44:15.635Z,3.50
2019-01-05T17:47:10.054Z,3.40
2019-01-05T17:49:59.396Z,3.40
2019-01-05T17:52:47.797Z,3.30
2019-01-05T17:55:36.997Z,3.30
2019-01-05T17:58:26.323Z,3.30
2019-01-05T18:01:36.906Z,3.30
2019-01-05T18:04:39.089Z,3.30
2019-01-05T18:07:47.618Z,3.30
2019-01-05T18:10:36.323Z,3.30
2019-01-05T18:13:25.045Z,3.30
2019-01-05T18:16:17.768Z,3.30
2019-01-05T18:19:12.768Z,3.30
2019-01-05T18:22:00.746Z,3.30
2019-01-05T18:24:49.507Z,3.20
2019-01-05T18:27:42.670Z,3.20
2019-01-05T18:30:35.550Z,3.10
2019-01-05T18:33:27.571Z,3.20
2019-01-05T18:36:16.661Z,3.20
2019-01-05T18:39:07.217Z,3.20
2019-01-05T18:42:16.621Z,3.20
2019-01-05T18:45:05.635Z,3.20
2019-01-05T18:47:54.241Z,3.20
2019-01-05T18:50:46.634Z,3.10
2019-01-05T18:53:36.796Z,3.10
2019-01-05T18:56:25.258Z,3.10
2019-01-05T18:59:14.397Z,3.10
2019-01-05T19:02:07.876Z,3.20
2019-01-05T19:04:57.522Z,3.20
2019-01-05T19:07:47.872Z,3.30
2019-01-05T19:10:38.446Z,3.40
2019-01-05T19:13:35.146Z,3.40
2019-01-05T19:16:38.551Z,3.40
2019-01-05T19:19:29.345Z,3.40
2019-01-05T19:22:20.129Z,3.30
2019-01-05T19:25:18.696Z,3.30
2019-01-05T19:28:08.308Z,3.40
2019-01-05T19:31:11.229Z,3.50
2019-01-05T19:34:01.652Z,3.50
2019-01-05T19:36:48.016Z,3.50
2019-01-05T19:39:37.665Z,3.50
2019-01-05T19:42:40.904Z,3.50
2019-01-05T19:45:40.866Z,3.30
2019-01-05T19:48:31.278Z,3.40
2019-01-05T19:51:21.992Z,3.60
2019-01-05T19:54:11.581Z,3.50
2019-01-05T19:56:53.698Z,3.40
2019-01-05T19:59:51.028Z,3.40
2019-01-05T20:02:53.933Z,3.20
2019-01-05T20:05:44.607Z,3.10
2019-01-05T20:08:34.141Z,3.00
2019-01-05T20:11:30.441Z,2.80
2019-01-05T20:14:20.926Z,2.80
2019-01-05T20:17:21.652Z,2.80
2019-01-05T20:20:11.938Z,2.70
2019-01-05T20:23:08.057Z,2.50
2019-01-05T20:25:58.461Z,2.50
2019-01-05T20:28:48.639Z,2.50
2019-01-05T20:31:44.777Z,2.50
2019-01-05T20:34:28.208Z,2.50
2019-01-05T20:37:17.128Z,2.40
2019-01-05T20:40:06.111Z,2.40
2019-01-05T20:42:55.288Z,2.40
2019-01-05T20:45:44.515Z,2.40
2019-01-05T20:48:44.463Z,2.40
2019-01-05T20:51:40.484Z,2.40
2019-01-05T20:54:32.702Z,2.40
2019-01-05T20:57:21.442Z,2.40
2019-01-05T21:00:10.604Z,2.40
2019-01-05T21:03:00.853Z,2.40
2019-01-05T21:05:44.366Z,2.40
2019-01-05T21:08:37.392Z,2.40
2019-01-05T21:11:26.151Z,2.40
2019-01-05T21:14:25.618Z,2.40
2019-01-05T21:17:16.016Z,2.40
2019-01-05T21:20:07.184Z,2.40
2019-01-05T21:23:00.099Z,2.40
2019-01-05T21:25:55.648Z,2.50
2019-01-05T21:28:54.839Z,2.60
2019-01-05T21:31:47.367Z,2.60
2019-01-05T21:34:40.459Z,2.70
2019-01-05T21:37:42.535Z,2.70
2019-01-05T21:40:31.110Z,2.70
2019-01-05T21:43:27.071Z,2.70
2019-01-05T21:46:15.499Z,2.70
2019-01-05T21:49:06.714Z,2.70
2019-01-05T21:51:59.708Z,2.80
2019-01-05T21:54:53.772Z,2.80
2019-01-05T21:57:35.046Z,2.90
2019-01-05T22:00:33.625Z,3.00
2019-01-05T22:03:26.512Z,3.00
2019-01-05T22:06:16.617Z,3.00
2019-01-05T22:09:21.816Z,3.00
2019-01-05T22:12:06.548Z,3.00
2019-01-05T22:14:56.620Z,3.00
2019-01-05T22:17:35.544Z,3.00
2019-01-05T22:20:22.414Z,3.10
2019-01-05T22:23:11.280Z,2.90
2019-01-05T22:26:04.378Z,2.90
2019-01-05T22:29:09.830Z,2.90
2019-01-05T22:32:04.958Z,2.80
2019-01-05T22:35:03.806Z,2.80
2019-01-05T22:38:00.004Z,2.80
2019-01-05T22:40:56.615Z,2.80
2019-01-05T22:43:45.404Z,2.80
2019-01-05T22:46:47.573Z,2.90
2019-01-05T22:49:43.763Z,2.90
2019-01-05T22:52:36.914Z,2.80
2019-01-05T22:55:33.186Z,2.70
2019-01-05T22:58:26.069Z,2.80
2019-01-05T23:01:15.016Z,2.80
2019-01-05T23:04:08.296Z,2.80
2019-01-05T23:06:58.771Z,2.80
2019-01-05T23:09:59.853Z,2.80
2019-01-05T23:12:49.731Z,2.80
2019-01-05T23:15:56.628Z,2.80
2019-01-05T23:18:39.853Z,2.80
2019-01-05T23:21:39.679Z,2.80
2019-01-05T23:24:28.401Z,2.70
2019-01-05T23:27:26.002Z,2.80
2019-01-05T23:30:28.626Z,2.80
2019-01-05T23:33:17.397Z,3.00
2019-01-05T23:36:23.102Z,3.10
2019-01-05T23:39:11.837Z,3.10
2019-01-05T23:42:11.669Z,3.10
2019-01-05T23:45:02.027Z,3.10
2019-01-05T23:48:01.051Z,3.20
2019-01-05T23:50:51.049Z,3.50
2019-01-05T23:53:32.804Z,3.70
2019-01-05T23:56:21.918Z,3.80
2019-01-05T23:59:11.982Z,4.00
